createdAt,value
2018-08-28T00:00:00.724Z,17.70
2018-08-28T00:02:32.195Z,17.70
2018-08-28T00:05:04.827Z,17.60
2018-08-28T00:07:36.846Z,17.60
2018-08-28T00:10:09.517Z,17.70
2018-08-28T00:12:41.245Z,17.60
2018-08-28T00:15:13.297Z,17.70
2018-08-28T00:17:44.877Z,17.70
2018-08-28T00:20:16.529Z,17.70
2018-08-28T00:22:47.911Z,17.70
2018-08-28T00:25:21.300Z,17.70
2018-08-28T00:27:51.618Z,17.60
2018-08-28T00:30:22.270Z,17.70
2018-08-28T00:32:52.854Z,17.70
2018-08-28T00:35:24.439Z,17.80
2018-08-28T00:37:55.469Z,17.80
2018-08-28T00:40:27.379Z,17.90
2018-08-28T00:42:58.539Z,17.90
2018-08-28T00:45:32.299Z,17.90
2018-08-28T00:48:09.949Z,17.90
2018-08-28T00:50:41.380Z,17.90
2018-08-28T00:53:18.369Z,17.90
2018-08-28T00:55:57.953Z,17.90
2018-08-28T00:58:29.463Z,17.90
2018-08-28T01:01:01.293Z,17.80
2018-08-28T01:03:40.470Z,17.80
2018-08-28T01:06:19.880Z,17.70
2018-08-28T01:08:59.607Z,17.70
2018-08-28T01:11:30.013Z,17.60
2018-08-28T01:14:09.886Z,17.50
2018-08-28T01:16:41.363Z,17.50
2018-08-28T01:19:12.543Z,17.40
2018-08-28T01:21:44.824Z,17.40
2018-08-28T01:24:15.893Z,17.40
2018-08-28T01:26:50.484Z,17.30
2018-08-28T01:29:30.569Z,17.30
2018-08-28T01:32:02.219Z,17.30
2018-08-28T01:34:42.327Z,17.20
2018-08-28T01:37:21.315Z,17.20
2018-08-28T01:40:01.407Z,17.20
2018-08-28T01:42:38.267Z,17.10
2018-08-28T01:45:09.957Z,17.10
2018-08-28T01:47:49.287Z,17.10
2018-08-28T01:50:19.666Z,17.10
2018-08-28T01:52:51.908Z,17.00
2018-08-28T01:55:23.138Z,17.00
2018-08-28T01:58:02.982Z,17.00
2018-08-28T02:00:40.255Z,17.00
2018-08-28T02:03:11.893Z,16.90
2018-08-28T02:05:43.424Z,16.90
2018-08-28T02:08:14.843Z,16.90
2018-08-28T02:10:55.335Z,16.90
2018-08-28T02:13:26.005Z,16.90
2018-08-28T02:15:57.786Z,16.90
2018-08-28T02:18:37.129Z,16.90
2018-08-28T02:21:08.576Z,16.90
2018-08-28T02:23:45.147Z,16.90
2018-08-28T02:26:15.989Z,16.90
2018-08-28T02:28:48.050Z,16.90
2018-08-28T02:31:25.924Z,16.90
2018-08-28T02:33:56.635Z,16.80
2018-08-28T02:36:27.976Z,16.80
2018-08-28T02:38:59.346Z,16.80
2018-08-28T02:41:30.761Z,16.80
2018-08-28T02:44:02.391Z,16.70
2018-08-28T02:46:33.795Z,16.70
2018-08-28T02:49:04.671Z,16.70
2018-08-28T02:51:43.493Z,16.70
2018-08-28T02:54:24.494Z,16.70
2018-08-28T02:57:04.133Z,16.60
2018-08-28T02:59:37.294Z,16.60
2018-08-28T03:02:08.584Z,16.50
2018-08-28T03:04:39.079Z,16.50
2018-08-28T03:07:10.796Z,16.50
2018-08-28T03:09:50.348Z,16.40
2018-08-28T03:12:21.654Z,16.40
2018-08-28T03:15:02.144Z,16.40
2018-08-28T03:17:41.617Z,16.40
2018-08-28T03:20:13.146Z,16.40
2018-08-28T03:22:44.697Z,16.40
2018-08-28T03:25:24.372Z,16.30
2018-08-28T03:28:04.080Z,16.30
2018-08-28T03:30:35.803Z,16.20
2018-08-28T03:33:08.003Z,16.20
2018-08-28T03:38:06.574Z,16.20
2018-08-28T03:40:47.091Z,16.10
2018-08-28T03:43:18.398Z,16.10
2018-08-28T03:45:49.890Z,16.10
2018-08-28T03:48:21.346Z,16.10
2018-08-28T03:51:00.892Z,16.10
2018-08-28T03:53:41.171Z,16.10
2018-08-28T03:56:12.922Z,16.10
2018-08-28T03:58:44.766Z,16.00
2018-08-28T04:01:16.778Z,15.90
2018-08-28T04:03:48.431Z,15.90
2018-08-28T04:06:20.072Z,15.80
2018-08-28T04:08:51.160Z,15.80
2018-08-28T04:11:22.670Z,15.90
2018-08-28T04:13:55.071Z,15.90
2018-08-28T04:18:52.890Z,15.80
2018-08-28T04:21:24.590Z,15.80
2018-08-28T04:23:56.200Z,15.70
2018-08-28T04:26:26.922Z,15.70
2018-08-28T04:28:58.821Z,15.70
2018-08-28T04:31:30.144Z,15.70
2018-08-28T04:34:02.511Z,15.60
2018-08-28T04:36:34.161Z,15.60
2018-08-28T04:39:06.714Z,15.60
2018-08-28T04:41:44.743Z,15.70
2018-08-28T04:44:17.355Z,15.70
2018-08-28T04:46:50.316Z,15.80
2018-08-28T04:49:29.823Z,15.80
2018-08-28T04:52:09.268Z,15.80
2018-08-28T04:54:49.546Z,15.80
2018-08-28T04:57:20.860Z,15.90
2018-08-28T05:00:00.463Z,16.00
2018-08-28T05:02:35.523Z,16.10
2018-08-28T05:05:10.246Z,16.20
2018-08-28T05:07:41.793Z,16.20
2018-08-28T05:10:12.433Z,16.20
2018-08-28T05:12:43.547Z,16.10
2018-08-28T05:15:14.046Z,16.10
2018-08-28T05:17:45.867Z,16.20
2018-08-28T05:20:16.557Z,16.20
2018-08-28T05:22:48.416Z,16.20
2018-08-28T05:25:19.936Z,16.30
2018-08-28T05:27:52.247Z,16.30
2018-08-28T05:30:24.391Z,16.40
2018-08-28T05:32:55.467Z,16.40
2018-08-28T05:35:27.608Z,16.50
2018-08-28T05:37:59.121Z,16.50
2018-08-28T05:40:29.503Z,16.50
2018-08-28T05:43:01.345Z,16.50
2018-08-28T05:45:32.447Z,16.90
2018-08-28T05:48:03.562Z,17.10
2018-08-28T05:50:40.222Z,17.40
2018-08-28T05:53:11.052Z,17.90
2018-08-28T05:55:43.330Z,18.70
2018-08-28T05:58:13.732Z,19.40
2018-08-28T06:00:44.793Z,19.90
2018-08-28T06:03:16.656Z,19.90
2018-08-28T06:05:48.029Z,19.80
2018-08-28T06:08:20.703Z,19.50
2018-08-28T06:10:52.352Z,19.20
2018-08-28T06:13:33.660Z,19.10
2018-08-28T06:16:11.658Z,18.90
2018-08-28T06:18:46.088Z,18.80
2018-08-28T06:21:26.305Z,18.70
2018-08-28T06:24:04.594Z,18.80
2018-08-28T06:26:42.963Z,19.00
2018-08-28T06:29:14.447Z,19.10
2018-08-28T06:31:44.994Z,19.90
2018-08-28T06:34:16.014Z,20.40
2018-08-28T06:36:47.082Z,20.50
2018-08-28T06:39:19.054Z,20.40
2018-08-28T06:41:51.144Z,20.40
2018-08-28T06:44:22.686Z,20.20
2018-08-28T06:46:54.694Z,20.20
2018-08-28T06:49:25.893Z,20.50
2018-08-28T06:51:57.172Z,20.60
2018-08-28T06:54:28.944Z,20.90
2018-08-28T06:57:01.965Z,20.80
2018-08-28T06:59:41.737Z,20.70
2018-08-28T07:02:13.543Z,20.80
2018-08-28T07:04:46.268Z,20.80
2018-08-28T07:07:18.234Z,20.70
2018-08-28T07:09:58.358Z,20.70
2018-08-28T07:12:38.085Z,20.80
2018-08-28T07:15:10.037Z,21.00
2018-08-28T07:17:44.867Z,21.00
2018-08-28T07:20:15.365Z,21.20
2018-08-28T07:22:45.398Z,21.20
2018-08-28T07:25:16.817Z,21.10
2018-08-28T07:27:47.657Z,21.10
2018-08-28T07:30:19.797Z,21.00
2018-08-28T07:33:00.438Z,21.00
2018-08-28T07:35:31.856Z,21.00
2018-08-28T07:38:04.520Z,21.10
2018-08-28T07:40:43.686Z,21.10
2018-08-28T07:43:23.946Z,21.20
2018-08-28T07:46:03.681Z,21.30
2018-08-28T07:48:44.656Z,21.50
2018-08-28T07:51:24.485Z,21.60
2018-08-28T07:53:57.269Z,21.50
2018-08-28T07:56:32.505Z,21.70
2018-08-28T07:59:12.401Z,21.80
2018-08-28T08:01:50.327Z,21.90
2018-08-28T08:04:31.467Z,22.00
2018-08-28T08:07:10.841Z,22.00
2018-08-28T08:09:50.742Z,22.00
2018-08-28T08:12:22.636Z,22.10
2018-08-28T08:15:01.849Z,22.10
2018-08-28T08:17:41.382Z,22.00
2018-08-28T08:20:18.085Z,22.00
2018-08-28T08:22:54.175Z,22.10
2018-08-28T08:25:33.064Z,22.20
2018-08-28T08:28:12.899Z,22.40
2018-08-28T08:30:52.593Z,22.60
2018-08-28T08:33:32.576Z,22.60
2018-08-28T08:36:12.100Z,22.60
2018-08-28T08:38:50.324Z,22.60
2018-08-28T08:41:29.732Z,22.80
2018-08-28T08:44:09.680Z,23.00
2018-08-28T08:46:49.759Z,23.20
2018-08-28T08:49:26.426Z,23.40
2018-08-28T08:52:06.989Z,23.70
2018-08-28T08:54:46.862Z,24.10
2018-08-28T08:57:27.446Z,24.30
2018-08-28T09:00:05.872Z,24.40
2018-08-28T09:02:46.236Z,24.40
2018-08-28T09:05:23.467Z,24.30
2018-08-28T09:08:00.454Z,24.40
2018-08-28T09:10:40.005Z,24.40
2018-08-28T09:13:19.115Z,24.40
2018-08-28T09:15:58.520Z,24.30
2018-08-28T09:18:38.038Z,24.40
2018-08-28T09:21:17.881Z,25.00
2018-08-28T09:23:53.941Z,26.00
2018-08-28T09:26:29.180Z,27.90
2018-08-28T09:29:08.859Z,30.90
2018-08-28T09:31:45.559Z,34.70
2018-08-28T09:34:17.317Z,37.80
2018-08-28T09:36:49.356Z,40.10
2018-08-28T09:39:25.296Z,42.20
2018-08-28T09:41:58.023Z,43.60
2018-08-28T09:44:32.625Z,44.70
2018-08-28T09:47:04.835Z,45.70
2018-08-28T09:49:41.897Z,46.60
2018-08-28T09:52:17.732Z,47.60
2018-08-28T09:54:55.976Z,48.00
2018-08-28T09:57:33.313Z,48.00
2018-08-28T10:00:14.478Z,48.00
2018-08-28T10:02:46.859Z,48.50
2018-08-28T10:05:27.098Z,48.60
2018-08-28T10:08:04.971Z,49.10
2018-08-28T10:10:40.998Z,49.00
2018-08-28T10:13:18.037Z,48.90
2018-08-28T10:15:56.677Z,48.50
2018-08-28T10:18:36.477Z,48.40
2018-08-28T10:21:16.197Z,48.70
2018-08-28T10:23:53.520Z,49.40
2018-08-28T10:26:30.215Z,49.30
2018-08-28T10:29:09.641Z,49.90
2018-08-28T10:31:48.658Z,50.00
2018-08-28T10:34:22.980Z,50.30
2018-08-28T10:36:59.559Z,50.30
2018-08-28T10:39:39.375Z,50.30
2018-08-28T10:42:18.921Z,49.20
2018-08-28T10:44:58.234Z,49.60
2018-08-28T10:47:38.380Z,49.90
2018-08-28T10:50:18.140Z,49.90
2018-08-28T10:52:58.584Z,49.80
2018-08-28T10:55:36.697Z,49.80
2018-08-28T10:58:12.960Z,49.70
2018-08-28T11:00:52.303Z,50.00
2018-08-28T11:03:31.690Z,49.80
2018-08-28T11:06:04.056Z,49.40
2018-08-28T11:08:40.390Z,49.30
2018-08-28T11:11:35.072Z,49.00
2018-08-28T11:14:21.052Z,49.30
2018-08-28T11:16:57.500Z,48.70
2018-08-28T11:19:37.389Z,48.40
2018-08-28T11:22:17.271Z,47.50
2018-08-28T11:24:53.507Z,47.90
2018-08-28T11:27:31.487Z,47.80
2018-08-28T11:30:11.884Z,47.90
2018-08-28T11:32:51.257Z,47.90
2018-08-28T11:35:27.589Z,48.30
2018-08-28T11:38:07.472Z,47.50
2018-08-28T11:40:47.555Z,47.60
2018-08-28T11:43:20.417Z,47.40
2018-08-28T11:46:00.202Z,47.00
2018-08-28T11:48:40.798Z,46.50
2018-08-28T11:51:20.727Z,44.80
2018-08-28T11:54:00.898Z,42.50
2018-08-28T11:56:35.517Z,40.80
2018-08-28T11:59:11.915Z,39.30
2018-08-28T12:01:51.173Z,37.90
2018-08-28T12:04:32.246Z,36.50
2018-08-28T12:07:08.966Z,35.60
2018-08-28T12:09:49.328Z,34.00
2018-08-28T12:12:26.544Z,33.10
2018-08-28T12:15:05.499Z,32.00
2018-08-28T12:17:45.139Z,31.30
2018-08-28T12:20:24.398Z,31.20
2018-08-28T12:23:04.093Z,30.90
2018-08-28T12:25:36.092Z,30.60
2018-08-28T12:28:13.784Z,30.40
2018-08-28T12:30:49.919Z,30.40
2018-08-28T12:33:29.474Z,30.10
2018-08-28T12:36:09.296Z,29.80
2018-08-28T12:38:46.399Z,29.60
2018-08-28T12:41:25.767Z,29.60
2018-08-28T12:44:05.870Z,29.50
2018-08-28T12:46:44.179Z,29.30
2018-08-28T12:49:23.720Z,29.10
2018-08-28T12:52:03.513Z,28.90
2018-08-28T12:54:43.372Z,28.80
2018-08-28T12:57:23.472Z,28.80
2018-08-28T13:00:02.691Z,28.70
2018-08-28T13:02:41.882Z,28.80
2018-08-28T13:05:18.817Z,28.70
2018-08-28T13:07:57.357Z,28.60
2018-08-28T13:10:37.648Z,28.50
2018-08-28T13:13:17.482Z,28.40
2018-08-28T13:15:57.150Z,28.30
2018-08-28T13:18:33.101Z,28.30
2018-08-28T13:21:13.699Z,28.20
2018-08-28T13:23:51.286Z,28.10
2018-08-28T13:26:27.436Z,27.80
2018-08-28T13:29:05.515Z,27.80
2018-08-28T13:31:45.256Z,27.70
2018-08-28T13:34:24.677Z,27.60
2018-08-28T13:37:03.787Z,27.50
2018-08-28T13:39:42.941Z,27.40
2018-08-28T13:42:22.932Z,27.50
2018-08-28T13:45:03.054Z,27.60
2018-08-28T13:47:42.782Z,27.60
2018-08-28T13:50:22.543Z,27.60
2018-08-28T13:53:01.128Z,27.70
2018-08-28T13:55:40.259Z,27.80
2018-08-28T13:58:19.434Z,27.80
2018-08-28T14:00:59.385Z,27.70
2018-08-28T14:03:35.711Z,27.70
2018-08-28T14:06:13.984Z,27.70
2018-08-28T14:08:53.705Z,27.60
2018-08-28T14:11:33.509Z,27.50
2018-08-28T14:14:05.281Z,27.50
2018-08-28T14:16:37.976Z,27.50
2018-08-28T14:19:14.738Z,27.50
2018-08-28T14:21:54.864Z,27.50
2018-08-28T14:24:35.607Z,27.60
2018-08-28T14:27:15.663Z,27.50
2018-08-28T14:29:52.902Z,27.40
2018-08-28T14:32:30.308Z,27.20
2018-08-28T14:35:07.196Z,27.10
2018-08-28T14:37:47.305Z,27.10
2018-08-28T14:40:26.987Z,27.00
2018-08-28T14:43:07.120Z,27.00
2018-08-28T14:45:47.046Z,27.00
2018-08-28T14:48:26.354Z,27.10
2018-08-28T14:51:06.310Z,27.10
2018-08-28T14:53:46.036Z,27.20
2018-08-28T14:56:26.501Z,27.20
2018-08-28T14:59:03.749Z,27.20
2018-08-28T15:01:43.042Z,27.10
2018-08-28T15:04:22.531Z,27.00
2018-08-28T15:07:02.097Z,27.00
2018-08-28T15:09:41.665Z,27.10
2018-08-28T15:12:20.927Z,27.10
2018-08-28T15:15:00.744Z,27.00
2018-08-28T15:17:38.532Z,26.90
2018-08-28T15:20:18.455Z,26.90
2018-08-28T15:22:54.392Z,26.70
2018-08-28T15:25:31.993Z,26.70
2018-08-28T15:28:11.497Z,26.60
2018-08-28T15:30:50.426Z,26.50
2018-08-28T15:33:30.039Z,26.40
2018-08-28T15:36:10.927Z,26.40
2018-08-28T15:38:51.048Z,26.40
2018-08-28T15:41:31.376Z,26.30
2018-08-28T15:44:12.039Z,26.30
2018-08-28T15:46:51.774Z,26.30
2018-08-28T15:49:28.272Z,26.30
2018-08-28T15:52:05.270Z,26.30
2018-08-28T15:54:45.573Z,26.30
2018-08-28T15:57:21.694Z,26.30
2018-08-28T16:00:01.442Z,26.20
2018-08-28T16:02:39.085Z,26.10
2018-08-28T16:05:19.942Z,26.10
2018-08-28T16:07:59.653Z,26.00
2018-08-28T16:10:38.583Z,26.00
2018-08-28T16:13:17.621Z,25.90
2018-08-28T16:15:57.369Z,25.90
2018-08-28T16:18:35.265Z,25.80
2018-08-28T16:21:15.198Z,25.80
2018-08-28T16:23:56.329Z,25.70
2018-08-28T16:26:36.113Z,25.70
2018-08-28T16:29:16.263Z,25.60
2018-08-28T16:31:47.683Z,25.60
2018-08-28T16:34:18.342Z,25.60
2018-08-28T16:36:58.207Z,25.50
2018-08-28T16:39:29.413Z,25.50
2018-08-28T16:42:02.349Z,25.50
2018-08-28T16:44:33.380Z,25.40
2018-08-28T16:47:04.479Z,25.30
2018-08-28T16:49:35.640Z,25.30
2018-08-28T16:52:08.119Z,25.20
2018-08-28T16:54:39.899Z,25.10
2018-08-28T16:57:13.379Z,25.10
2018-08-28T16:59:44.922Z,24.90
2018-08-28T17:02:25.043Z,24.80
2018-08-28T17:04:57.184Z,24.60
2018-08-28T17:07:28.535Z,24.50
2018-08-28T17:10:00.164Z,24.40
2018-08-28T17:12:31.044Z,24.30
2018-08-28T17:15:03.294Z,24.20
2018-08-28T17:17:37.883Z,24.20
2018-08-28T17:20:08.644Z,24.10
2018-08-28T17:22:41.643Z,24.00
2018-08-28T17:25:18.963Z,24.00
2018-08-28T17:27:49.753Z,23.90
2018-08-28T17:30:21.273Z,23.80
2018-08-28T17:32:51.753Z,23.70
2018-08-28T17:35:27.144Z,23.60
2018-08-28T17:37:59.813Z,23.60
2018-08-28T17:40:30.663Z,23.50
2018-08-28T17:43:01.933Z,23.40
2018-08-28T17:45:33.666Z,23.40
2018-08-28T17:48:04.953Z,23.20
2018-08-28T17:50:36.373Z,23.20
2018-08-28T17:53:07.423Z,23.20
2018-08-28T17:55:43.934Z,23.10
2018-08-28T17:58:15.326Z,23.00
2018-08-28T18:00:46.703Z,23.00
2018-08-28T18:03:17.684Z,22.90
2018-08-28T18:05:51.543Z,22.80
2018-08-28T18:08:23.896Z,22.70
2018-08-28T18:10:55.343Z,22.60
2018-08-28T18:13:26.154Z,22.50
2018-08-28T18:15:59.107Z,22.50
2018-08-28T18:18:29.823Z,22.40
2018-08-28T18:21:01.845Z,22.30
2018-08-28T18:23:33.226Z,22.30
2018-08-28T18:26:14.614Z,22.20
2018-08-28T18:28:45.549Z,22.20
2018-08-28T18:31:16.960Z,22.10
2018-08-28T18:33:48.324Z,22.10
2018-08-28T18:36:19.254Z,22.00
2018-08-28T18:38:56.632Z,21.90
2018-08-28T18:41:28.625Z,21.90
2018-08-28T18:43:59.944Z,21.80
2018-08-28T18:46:33.124Z,21.70
2018-08-28T18:49:13.281Z,21.70
2018-08-28T18:51:52.815Z,21.60
2018-08-28T18:54:32.711Z,21.60
2018-08-28T18:57:13.220Z,21.50
2018-08-28T18:59:53.041Z,21.50
2018-08-28T19:02:30.221Z,21.40
2018-08-28T19:05:10.723Z,21.40
2018-08-28T19:07:50.496Z,21.30
2018-08-28T19:10:30.462Z,21.30
2018-08-28T19:13:09.994Z,21.20
2018-08-28T19:15:41.993Z,21.20
2018-08-28T19:18:21.872Z,21.00
2018-08-28T19:21:02.073Z,21.00
2018-08-28T19:23:42.365Z,20.90
2018-08-28T19:26:23.204Z,20.90
2018-08-28T19:29:03.338Z,20.90
2018-08-28T19:31:43.121Z,20.90
2018-08-28T19:34:24.402Z,20.80
2018-08-28T19:37:04.299Z,20.70
2018-08-28T19:39:44.124Z,20.70
2018-08-28T19:42:15.943Z,20.70
2018-08-28T19:44:54.319Z,20.70
2018-08-28T19:47:34.299Z,20.60
2018-08-28T19:50:14.584Z,20.50
2018-08-28T19:52:54.677Z,20.50
2018-08-28T19:55:34.477Z,20.50
2018-08-28T19:58:14.699Z,20.50
2018-08-28T20:00:54.167Z,20.50
2018-08-28T20:03:33.494Z,20.50
2018-08-28T20:06:09.501Z,20.40
2018-08-28T20:08:49.029Z,20.40
2018-08-28T20:11:29.165Z,20.30
2018-08-28T20:14:09.865Z,20.30
2018-08-28T20:16:49.101Z,20.30
2018-08-28T20:19:20.984Z,20.20
2018-08-28T20:21:59.909Z,20.20
2018-08-28T20:24:40.314Z,20.20
2018-08-28T20:27:20.053Z,20.20
2018-08-28T20:29:59.481Z,20.20
2018-08-28T20:32:39.458Z,20.10
2018-08-28T20:35:15.676Z,20.10
2018-08-28T20:37:53.100Z,20.00
2018-08-28T20:40:32.578Z,20.00
2018-08-28T20:43:12.680Z,20.00
2018-08-28T20:45:52.597Z,20.00
2018-08-28T20:48:32.781Z,20.00
2018-08-28T20:51:12.416Z,20.00
2018-08-28T20:53:52.014Z,19.90
2018-08-28T20:56:25.023Z,19.90
2018-08-28T20:59:01.363Z,19.90
2018-08-28T21:01:38.653Z,19.90
2018-08-28T21:04:18.006Z,19.80
2018-08-28T21:06:57.989Z,19.80
2018-08-28T21:09:37.934Z,19.80
2018-08-28T21:12:17.423Z,19.70
2018-08-28T21:14:57.215Z,19.80
2018-08-28T21:17:36.793Z,19.80
2018-08-28T21:20:09.552Z,19.70
2018-08-28T21:22:45.478Z,19.70
2018-08-28T21:25:18.773Z,19.70
2018-08-28T21:27:50.043Z,19.70
2018-08-28T21:30:22.169Z,19.60
2018-08-28T21:32:53.859Z,19.60
2018-08-28T21:35:24.939Z,19.50
2018-08-28T21:37:56.056Z,19.50
2018-08-28T21:40:28.350Z,19.50
2018-08-28T21:42:59.700Z,19.50
2018-08-28T21:45:31.775Z,19.50
2018-08-28T21:48:11.731Z,19.40
2018-08-28T21:50:44.431Z,19.40
2018-08-28T21:53:16.071Z,19.40
2018-08-28T21:55:47.373Z,19.30
2018-08-28T21:58:19.095Z,19.30
2018-08-28T22:01:01.434Z,19.30
2018-08-28T22:03:33.024Z,19.20
2018-08-28T22:06:04.157Z,19.30
2018-08-28T22:08:36.183Z,19.20
2018-08-28T22:11:11.903Z,19.20
2018-08-28T22:13:43.426Z,19.10
2018-08-28T22:16:23.330Z,19.10
2018-08-28T22:18:55.280Z,19.10
2018-08-28T22:21:25.999Z,19.10
2018-08-28T22:23:57.520Z,19.10
2018-08-28T22:26:28.370Z,19.10
2018-08-28T22:28:59.520Z,19.00
2018-08-28T22:31:31.001Z,19.00
2018-08-28T22:34:02.390Z,19.00
2018-08-28T22:36:34.510Z,18.90
2018-08-28T22:39:07.376Z,18.90
2018-08-28T22:41:39.786Z,18.90
2018-08-28T22:44:11.095Z,18.90
2018-08-28T22:46:42.387Z,18.90
2018-08-28T22:49:14.295Z,18.80
2018-08-28T22:51:46.196Z,18.80
2018-08-28T22:54:18.876Z,18.80
2018-08-28T22:56:50.137Z,18.70
2018-08-28T22:59:21.487Z,18.70
2018-08-28T23:01:52.739Z,18.70
2018-08-28T23:04:25.406Z,18.60
2018-08-28T23:06:56.377Z,18.60
2018-08-28T23:09:28.016Z,18.60
2018-08-28T23:11:58.866Z,18.60
2018-08-28T23:14:30.336Z,18.60
2018-08-28T23:17:01.671Z,18.50
2018-08-28T23:19:34.142Z,18.50
2018-08-28T23:22:05.866Z,18.50
2018-08-28T23:24:38.336Z,18.50
2018-08-28T23:27:10.948Z,18.40
2018-08-28T23:29:42.644Z,18.40
2018-08-28T23:32:15.257Z,18.40
2018-08-28T23:34:47.416Z,18.40
2018-08-28T23:37:19.197Z,18.40
2018-08-28T23:39:51.346Z,18.40
2018-08-28T23:42:22.136Z,18.40
2018-08-28T23:44:53.397Z,18.40
2018-08-28T23:47:25.109Z,18.30
2018-08-28T23:49:56.176Z,18.30
2018-08-28T23:52:29.396Z,18.30
2018-08-28T23:55:02.197Z,18.30
2018-08-28T23:57:34.067Z,18.30
